Time;durP1;ratioP1;P1;durP2;ratioP2;P2;SDS_P1;SDS_P2;PMS_P1;PMS_P2;Temp;Humidity;BMP_temperature;BMP_pressure;BME280_temperature;BME280_humidity;BME280_pressure;Samples;Min_cycle;Max_cycle;Signal;HPM_P1;HPM_P2
2022/04/30 00:00:32;;;;;;;18.47;16.97;;;14.40;83.40;;;;;;6100804;23;20411;-83
2022/04/30 00:02:59;;;;;;;25.80;17.90;;;14.40;83.40;;;;;;6101216;23;20528;-84
2022/04/30 00:05:29;;;;;;;21.43;19.43;;;14.40;83.40;;;;;;6100088;23;20475;-83
2022/04/30 00:07:55;;;;;;;20.00;18.10;;;14.30;83.60;;;;;;6100052;23;20410;-83
2022/04/30 00:10:23;;;;;;;22.93;20.17;;;14.30;83.90;;;;;;6101529;23;20453;-84
2022/04/30 00:12:50;;;;;;;21.03;18.27;;;14.30;83.80;;;;;;6100082;23;20436;-83
2022/04/30 00:15:16;;;;;;;21.30;19.30;;;14.30;83.80;;;;;;6101323;23;20416;-82
2022/04/30 00:17:43;;;;;;;21.30;19.40;;;14.30;83.80;;;;;;6101558;23;20771;-84
2022/04/30 00:20:10;;;;;;;21.33;19.30;;;14.30;84.00;;;;;;6102837;23;20782;-82
2022/04/30 00:22:39;;;;;;;21.93;19.80;;;14.30;84.20;;;;;;6102478;23;20429;-82
2022/04/30 00:25:07;;;;;;;20.37;17.80;;;14.30;84.90;;;;;;6100630;23;20443;-83
2022/04/30 00:27:34;;;;;;;20.50;18.50;;;14.30;85.20;;;;;;6101103;23;20423;-84
2022/04/30 00:30:01;;;;;;;20.73;18.80;;;14.30;85.10;;;;;;6102621;23;20458;-82
2022/04/30 00:32:31;;;;;;;21.17;19.17;;;14.30;85.50;;;;;;6103365;23;20957;-84
2022/04/30 00:34:58;;;;;;;21.67;19.37;;;14.30;85.20;;;;;;6102144;23;20426;-84
2022/04/30 00:37:26;;;;;;;22.43;17.63;;;14.20;85.90;;;;;;6105514;23;20439;-83
2022/04/30 00:39:54;;;;;;;18.87;17.00;;;14.30;85.80;;;;;;6101350;23;20474;-82
2022/04/30 00:42:20;;;;;;;18.43;16.37;;;14.20;85.90;;;;;;6101875;23;20474;-82
2022/04/30 00:44:49;;;;;;;17.83;15.97;;;14.10;86.20;;;;;;6102440;23;20908;-84
2022/04/30 00:47:18;;;;;;;19.07;17.13;;;14.10;86.60;;;;;;6103197;23;20422;-81
2022/04/30 00:49:45;;;;;;;18.83;17.10;;;14.10;86.20;;;;;;6104643;23;20867;-82
2022/04/30 00:52:15;;;;;;;21.30;16.90;;;14.10;86.70;;;;;;6117635;23;20449;-87
2022/04/30 00:54:43;;;;;;;18.40;15.20;;;14.00;86.90;;;;;;6126196;23;20396;-87
2022/04/30 00:57:14;;;;;;;19.80;14.00;;;14.10;87.30;;;;;;6126900;23;20744;-87
2022/04/30 00:59:43;;;;;;;17.03;14.67;;;14.10;86.90;;;;;;6126494;23;20411;-87
2022/04/30 01:02:10;;;;;;;16.07;14.57;;;14.00;87.50;;;;;;6119315;23;20924;-87
2022/04/30 01:04:37;;;;;;;13.97;12.53;;;14.00;87.90;;;;;;6096691;23;20406;-87
2022/04/30 01:07:07;;;;;;;13.43;12.33;;;14.00;88.10;;;;;;6096452;23;20453;-87
2022/04/30 01:09:39;;;;;;;13.30;12.10;;;14.00;86.60;;;;;;6096626;23;20910;-87
2022/04/30 01:12:10;;;;;;;15.03;13.70;;;14.10;86.30;;;;;;6096205;23;20444;-88
2022/04/30 01:14:39;;;;;;;15.67;14.10;;;14.20;87.30;;;;;;6099486;23;20400;-87
2022/04/30 01:17:08;;;;;;;13.63;12.43;;;14.10;87.30;;;;;;6096570;23;20787;-88
2022/04/30 01:19:37;;;;;;;13.30;12.00;;;14.10;87.20;;;;;;6104475;23;20403;-87
2022/04/30 01:22:09;;;;;;;14.27;12.90;;;14.10;87.10;;;;;;6112197;23;20428;-87
2022/04/30 01:24:38;;;;;;;14.07;12.60;;;14.10;87.30;;;;;;6107923;23;20433;-88
2022/04/30 01:27:06;;;;;;;13.30;12.10;;;14.20;86.90;;;;;;6104870;23;20409;-88
2022/04/30 01:29:36;;;;;;;15.10;13.77;;;14.20;87.50;;;;;;6099085;23;20482;-88
2022/04/30 01:37:36;;;;;;;16.60;14.97;;;14.20;89.70;;;;;;6096005;23;20419;-88
2022/04/30 01:40:06;;;;;;;17.30;14.97;;;14.20;89.60;;;;;;6098513;23;20400;-88
2022/04/30 01:42:36;;;;;;;18.93;17.10;;;14.20;90.40;;;;;;6098254;23;20431;-88
2022/04/30 01:45:05;;;;;;;21.13;17.43;;;14.20;90.60;;;;;;6112638;23;20411;-87
2022/04/30 01:47:34;;;;;;;21.77;17.30;;;14.10;90.90;;;;;;6120229;23;20446;-87
2022/04/30 01:50:02;;;;;;;22.53;16.97;;;14.10;91.30;;;;;;6120664;23;20421;-87
2022/04/30 01:52:29;;;;;;;19.47;17.47;;;14.10;91.60;;;;;;6097683;23;20455;-87
2022/04/30 01:54:56;;;;;;;20.40;18.43;;;14.10;92.00;;;;;;6097134;23;20952;-87
2022/04/30 01:57:26;;;;;;;20.23;17.10;;;14.10;92.20;;;;;;6099545;23;20417;-86
2022/04/30 01:59:53;;;;;;;20.27;18.17;;;14.10;92.60;;;;;;6110375;23;20485;-87
2022/04/30 02:02:23;;;;;;;23.50;18.23;;;14.00;93.00;;;;;;6097725;23;20485;-88
2022/04/30 02:04:52;;;;;;;21.13;18.13;;;14.00;93.20;;;;;;6097388;23;20414;-87
2022/04/30 02:07:19;;;;;;;21.47;19.27;;;14.00;93.60;;;;;;6097480;23;20805;-87
2022/04/30 02:09:47;;;;;;;30.17;19.50;;;13.90;93.60;;;;;;6106726;23;20414;-87
2022/04/30 02:12:14;;;;;;;22.77;19.53;;;13.90;93.90;;;;;;6124081;23;20526;-87
2022/04/30 02:14:48;;;;;;;21.50;19.40;;;13.90;94.30;;;;;;6124081;23;20444;-88
2022/04/30 02:17:16;;;;;;;22.80;20.47;;;14.00;94.90;;;;;;6111708;23;20398;-87
2022/04/30 02:22:31;;;;;;;23.00;20.70;;;13.90;95.00;;;;;;6102316;23;20987;-87
2022/04/30 02:24:58;;;;;;;28.40;21.97;;;13.90;95.20;;;;;;6101002;23;20406;-88
2022/04/30 02:27:25;;;;;;;20.60;18.40;;;13.90;95.50;;;;;;6102347;23;20410;-87
2022/04/30 02:29:53;;;;;;;23.07;19.63;;;13.90;95.50;;;;;;6113777;23;20478;-87
2022/04/30 02:32:20;;;;;;;21.47;19.23;;;13.90;95.50;;;;;;6113289;23;20462;-87
2022/04/30 02:34:47;;;;;;;25.30;20.13;;;13.90;95.80;;;;;;6104994;23;20412;-88
2022/04/30 02:37:14;;;;;;;28.00;20.60;;;13.80;96.00;;;;;;6104764;23;20417;-87
2022/04/30 02:39:42;;;;;;;24.97;19.10;;;13.80;96.30;;;;;;6097815;23;20734;-87
2022/04/30 02:42:11;;;;;;;22.53;20.17;;;13.90;96.70;;;;;;6097076;23;20432;-88
2022/04/30 02:44:38;;;;;;;20.90;18.67;;;13.90;96.80;;;;;;6097492;23;20909;-87
2022/04/30 02:47:08;;;;;;;22.33;20.07;;;13.80;96.90;;;;;;6097162;23;20857;-87
2022/04/30 02:49:36;;;;;;;24.13;20.63;;;13.80;97.00;;;;;;6097458;23;20397;-87
2022/04/30 02:52:03;;;;;;;23.53;21.03;;;13.80;97.30;;;;;;6096568;23;20856;-87
2022/04/30 02:54:34;;;;;;;21.37;19.13;;;13.80;97.10;;;;;;6099446;23;20401;-88
2022/04/30 02:57:00;;;;;;;21.43;19.10;;;13.80;97.30;;;;;;6101414;23;20408;-87
2022/04/30 03:02:13;;;;;;;22.80;18.37;;;13.70;97.50;;;;;;6101170;23;20424;-88
2022/04/30 03:04:39;;;;;;;20.80;18.80;;;13.70;97.70;;;;;;6097371;23;21003;-88
2022/04/30 03:07:09;;;;;;;21.37;19.07;;;13.70;97.80;;;;;;6112536;23;20410;-88
2022/04/30 03:09:36;;;;;;;21.20;18.83;;;13.70;98.10;;;;;;6097137;23;20422;-88
2022/04/30 03:12:03;;;;;;;19.90;17.90;;;13.70;98.10;;;;;;6096583;23;20449;-88
2022/04/30 03:14:29;;;;;;;19.80;17.77;;;13.60;98.30;;;;;;6096946;23;20417;-87
2022/04/30 03:22:26;;;;;;;24.77;20.50;;;13.60;98.80;;;;;;6097001;23;20413;-87
2022/04/30 03:24:53;;;;;;;23.10;20.27;;;13.60;99.50;;;;;;6098140;23;20418;-88
2022/04/30 03:27:20;;;;;;;21.87;19.50;;;13.60;99.40;;;;;;6099244;23;20406;-87
2022/04/30 03:29:47;;;;;;;23.53;21.13;;;13.60;99.60;;;;;;6118931;23;20384;-87
2022/04/30 03:32:13;;;;;;;23.03;20.63;;;13.50;99.90;;;;;;6122536;23;20436;-88
2022/04/30 03:34:41;;;;;;;23.63;20.90;;;13.50;99.90;;;;;;6122315;23;20395;-87
2022/04/30 03:37:08;;;;;;;29.17;22.70;;;13.50;99.90;;;;;;6124155;23;20414;-87
2022/04/30 03:39:35;;;;;;;28.93;23.10;;;13.50;99.90;;;;;;6105942;23;20432;-87
2022/04/30 03:42:01;;;;;;;31.33;23.03;;;13.40;99.90;;;;;;6098312;23;20437;-87
2022/04/30 03:44:28;;;;;;;25.53;20.93;;;13.40;99.90;;;;;;6102107;23;20406;-87
2022/04/30 03:46:55;;;;;;;31.07;23.40;;;13.50;99.90;;;;;;6107329;23;20420;-87
2022/04/30 03:49:21;;;;;;;27.43;22.90;;;13.50;99.90;;;;;;6099634;23;20715;-87
2022/04/30 03:51:49;;;;;;;26.60;23.13;;;13.50;99.90;;;;;;6097968;23;20440;-87
2022/04/30 03:54:16;;;;;;;30.77;23.83;;;13.40;99.90;;;;;;6096785;23;20410;-88
2022/04/30 03:56:43;;;;;;;26.03;23.33;;;13.40;99.90;;;;;;6096346;23;20409;-87
2022/04/30 03:59:09;;;;;;;27.90;23.80;;;13.30;99.90;;;;;;6096792;23;20408;-87
2022/04/30 04:01:38;;;;;;;27.90;24.63;;;13.30;99.90;;;;;;6096650;23;20856;-88
2022/04/30 04:04:05;;;;;;;35.50;24.43;;;13.30;99.90;;;;;;6120274;23;20419;-87
2022/04/30 04:06:32;;;;;;;31.00;25.47;;;13.30;99.90;;;;;;6112867;23;20525;-87
2022/04/30 04:09:00;;;;;;;33.27;26.43;;;13.30;99.90;;;;;;6096912;23;20416;-87
2022/04/30 04:11:27;;;;;;;31.07;26.80;;;13.30;99.90;;;;;;6096910;23;20467;-87
2022/04/30 04:19:25;;;;;;;35.57;27.70;;;13.20;99.90;;;;;;6106989;23;20395;-87
2022/04/30 04:21:52;;;;;;;32.87;26.37;;;13.20;99.90;;;;;;6106202;23;20425;-87
2022/04/30 04:27:05;;;;;;;37.70;28.57;;;13.10;99.90;;;;;;6096879;23;20460;-87
2022/04/30 04:29:32;;;;;;;34.13;27.07;;;13.10;99.90;;;;;;6096640;23;20412;-89
2022/04/30 04:31:59;;;;;;;29.40;26.20;;;13.10;99.90;;;;;;6095973;23;20475;-87
2022/04/30 04:34:25;;;;;;;33.70;27.07;;;13.10;99.90;;;;;;6096966;23;20402;-88
2022/04/30 04:36:52;;;;;;;29.53;26.37;;;13.10;99.90;;;;;;6096950;23;20462;-86
2022/04/30 04:39:20;;;;;;;36.40;28.17;;;13.00;99.90;;;;;;6096815;23;20446;-86
2022/04/30 04:41:47;;;;;;;36.40;28.03;;;13.00;99.90;;;;;;6095891;23;20404;-87
2022/04/30 04:44:13;;;;;;;34.67;27.37;;;13.00;99.90;;;;;;6096741;23;20899;-86
2022/04/30 04:46:41;;;;;;;31.77;28.30;;;13.00;99.90;;;;;;6103422;23;20406;-87
2022/04/30 04:49:09;;;;;;;30.93;27.20;;;13.00;99.90;;;;;;6122217;23;20405;-87
2022/04/30 04:51:36;;;;;;;34.40;26.90;;;13.00;99.90;;;;;;6116096;23;20407;-88
2022/04/30 04:54:03;;;;;;;34.60;29.37;;;13.00;99.90;;;;;;6104762;23;20437;-87
2022/04/30 04:56:31;;;;;;;29.97;26.77;;;13.00;99.90;;;;;;6096711;23;20417;-88
2022/04/30 04:58:59;;;;;;;31.97;26.30;;;13.00;99.90;;;;;;6095678;23;20416;-88
2022/04/30 05:01:25;;;;;;;34.40;28.80;;;12.90;99.90;;;;;;6096522;23;20413;-87
2022/04/30 05:03:53;;;;;;;34.40;26.53;;;12.90;99.90;;;;;;6099044;23;20436;-87
2022/04/30 05:06:20;;;;;;;40.07;28.40;;;12.90;99.90;;;;;;6110375;23;20394;-87
2022/04/30 05:08:46;;;;;;;35.53;27.00;;;12.90;99.90;;;;;;6109003;23;20413;-88
2022/04/30 05:11:13;;;;;;;30.73;26.73;;;13.00;99.90;;;;;;6107065;23;20416;-87
2022/04/30 05:13:41;;;;;;;31.10;27.60;;;13.00;99.90;;;;;;6106851;23;20445;-87
2022/04/30 05:16:08;;;;;;;32.63;25.70;;;13.10;99.90;;;;;;6113490;23;20421;-88
2022/04/30 05:18:34;;;;;;;31.23;27.87;;;13.10;99.90;;;;;;6125927;23;20436;-87
2022/04/30 05:21:02;;;;;;;31.00;26.50;;;13.10;99.90;;;;;;6126236;23;20474;-87
2022/04/30 05:23:29;;;;;;;35.03;27.50;;;13.10;99.90;;;;;;6125219;23;20412;-88
2022/04/30 05:25:57;;;;;;;35.97;28.77;;;13.10;99.90;;;;;;6121591;23;20401;-87
2022/04/30 05:28:23;;;;;;;31.00;27.43;;;13.10;99.90;;;;;;6115891;23;20420;-88
2022/04/30 05:30:51;;;;;;;36.20;28.40;;;13.10;99.90;;;;;;6110051;23;20393;-88
2022/04/30 05:33:18;;;;;;;31.80;27.43;;;13.00;99.90;;;;;;6115737;23;20463;-88
2022/04/30 05:35:45;;;;;;;29.37;26.23;;;13.00;99.90;;;;;;6122535;23;20411;-88
2022/04/30 05:38:11;;;;;;;35.17;29.03;;;13.00;99.90;;;;;;6112800;23;20400;-88
2022/04/30 05:40:38;;;;;;;29.57;26.27;;;13.00;99.90;;;;;;6114881;23;20480;-88
2022/04/30 05:43:05;;;;;;;33.83;27.50;;;13.00;99.90;;;;;;6124561;23;20501;-89
2022/04/30 05:45:32;;;;;;;34.37;28.20;;;12.90;99.90;;;;;;6101666;23;20411;-88
2022/04/30 05:48:00;;;;;;;38.20;29.70;;;12.90;99.90;;;;;;6100228;23;20415;-88
2022/04/30 05:50:27;;;;;;;33.23;28.27;;;12.90;99.90;;;;;;6099879;23;20415;-88
2022/04/30 05:52:54;;;;;;;35.10;27.53;;;13.00;99.90;;;;;;6100577;23;20451;-88
2022/04/30 05:55:21;;;;;;;33.33;27.80;;;13.00;99.90;;;;;;6102962;23;20423;-88
2022/04/30 05:57:48;;;;;;;35.00;28.57;;;13.00;99.90;;;;;;6124435;23;20401;-88
2022/04/30 06:00:16;;;;;;;31.17;27.87;;;13.00;99.90;;;;;;6112104;23;20405;-88
2022/04/30 06:02:43;;;;;;;36.73;28.50;;;13.00;99.90;;;;;;6108030;23;20429;-88
2022/04/30 06:05:11;;;;;;;34.10;30.23;;;13.10;99.90;;;;;;6099832;23;20768;-88
2022/04/30 06:07:38;;;;;;;33.80;28.23;;;13.00;99.90;;;;;;6101860;23;20419;-87
2022/04/30 06:10:05;;;;;;;36.50;28.03;;;13.10;99.90;;;;;;6107105;23;20442;-86
2022/04/30 06:12:34;;;;;;;33.60;28.87;;;13.10;99.90;;;;;;6107592;23;20764;-86
2022/04/30 06:15:01;;;;;;;34.00;29.17;;;13.10;99.90;;;;;;6104267;23;20413;-85
2022/04/30 06:17:28;;;;;;;31.50;27.77;;;13.10;99.90;;;;;;6100812;23;20405;-86
2022/04/30 06:19:54;;;;;;;33.43;27.93;;;13.20;99.90;;;;;;6103648;23;20409;-89
2022/04/30 06:22:22;;;;;;;31.53;27.17;;;13.10;99.90;;;;;;6107220;23;20437;-88
2022/04/30 06:24:49;;;;;;;33.83;26.77;;;13.20;99.90;;;;;;6116783;23;20393;-88
2022/04/30 06:27:16;;;;;;;34.80;27.30;;;13.30;99.90;;;;;;6115870;23;20413;-88
2022/04/30 06:29:42;;;;;;;30.23;27.03;;;13.30;99.90;;;;;;6100645;23;20428;-88
2022/04/30 06:32:10;;;;;;;35.20;26.20;;;13.40;99.90;;;;;;6099651;23;20441;-87
2022/04/30 06:34:39;;;;;;;30.93;27.17;;;13.50;99.90;;;;;;6098135;23;20412;-87
2022/04/30 06:37:05;;;;;;;29.43;26.23;;;13.50;99.90;;;;;;6098045;23;20408;-88
2022/04/30 06:39:33;;;;;;;32.10;27.50;;;13.50;99.90;;;;;;6106752;23;20884;-88
2022/04/30 06:42:00;;;;;;;29.17;26.10;;;13.60;99.90;;;;;;6119828;23;20424;-88
2022/04/30 06:44:27;;;;;;;29.80;26.60;;;13.70;99.90;;;;;;6104882;23;20413;-88
2022/04/30 06:46:54;;;;;;;30.07;26.87;;;13.80;99.90;;;;;;6114531;23;20423;-88
2022/04/30 06:49:23;;;;;;;34.40;27.83;;;13.80;99.90;;;;;;6105616;23;20418;-88
2022/04/30 06:51:50;;;;;;;27.80;24.97;;;13.80;99.90;;;;;;6099593;23;20428;-87
2022/04/30 06:57:11;;;;;;;30.53;25.93;;;13.60;99.90;;;;;;6128552;23;20441;-82
2022/04/30 06:59:40;;;;;;;29.10;25.03;;;13.60;99.90;;;;;;6128994;23;20776;-83
2022/04/30 07:02:13;;;;;;;26.07;23.20;;;13.60;99.90;;;;;;6126980;23;20409;-82
2022/04/30 07:04:41;;;;;;;27.13;24.17;;;13.60;99.90;;;;;;6099772;23;20397;-82
2022/04/30 07:07:08;;;;;;;29.50;26.30;;;13.60;99.90;;;;;;6100249;23;20401;-82
2022/04/30 07:09:34;;;;;;;30.73;24.73;;;13.60;99.90;;;;;;6100284;23;20410;-83
2022/04/30 07:12:05;;;;;;;29.03;25.93;;;13.70;99.90;;;;;;6100522;23;20413;-79
2022/04/30 07:14:32;;;;;;;27.83;24.80;;;13.70;99.90;;;;;;6112479;23;20485;-82
2022/04/30 07:16:59;;;;;;;30.77;26.30;;;13.70;99.90;;;;;;6116897;23;20411;-81
2022/04/30 07:19:25;;;;;;;29.30;26.33;;;13.70;99.90;;;;;;6111882;23;20409;-81
2022/04/30 07:21:52;;;;;;;29.03;24.53;;;13.60;99.90;;;;;;6104291;23;20418;-80
2022/04/30 07:24:19;;;;;;;29.63;25.50;;;13.60;99.90;;;;;;6101728;23;20432;-82
2022/04/30 07:26:45;;;;;;;27.40;24.60;;;13.60;99.90;;;;;;6100168;23;20779;-82
2022/04/30 07:29:13;;;;;;;26.90;24.10;;;13.60;99.90;;;;;;6099667;23;20904;-81
2022/04/30 07:31:40;;;;;;;27.40;24.70;;;13.70;99.90;;;;;;6102297;23;20421;-82
2022/04/30 07:34:09;;;;;;;26.70;23.83;;;13.70;99.90;;;;;;6100700;23;20529;-82
2022/04/30 07:36:36;;;;;;;25.40;21.93;;;13.70;99.90;;;;;;6098164;23;20423;-81
2022/04/30 07:39:03;;;;;;;26.27;22.63;;;13.70;99.90;;;;;;6099207;23;20395;-81
2022/04/30 07:41:30;;;;;;;26.83;23.70;;;13.70;99.90;;;;;;6099867;23;20470;-82
2022/04/30 07:43:56;;;;;;;29.53;25.63;;;13.70;99.90;;;;;;6099345;23;20457;-81
2022/04/30 07:46:25;;;;;;;29.50;24.13;;;13.60;99.90;;;;;;6103229;23;20412;-81
2022/04/30 07:48:52;;;;;;;32.07;27.07;;;13.40;99.90;;;;;;6103954;23;20419;-82
2022/04/30 07:51:33;;;;;;;28.60;25.47;;;13.30;99.90;;;;;;6100582;23;20440;-80
2022/04/30 07:54:00;;;;;;;29.80;26.80;;;13.20;99.90;;;;;;6103069;23;20448;-80
2022/04/30 07:56:27;;;;;;;27.77;24.70;;;13.20;99.90;;;;;;6105258;23;20420;-79
2022/04/30 07:58:54;;;;;;;25.40;22.80;;;13.20;99.90;;;;;;6100859;23;20407;-81
2022/04/30 08:01:21;;;;;;;26.27;23.57;;;13.20;99.90;;;;;;6099828;23;20412;-82
2022/04/30 08:03:49;;;;;;;28.03;25.00;;;13.20;99.90;;;;;;6098567;23;20434;-81
2022/04/30 08:06:15;;;;;;;27.40;24.20;;;13.20;99.90;;;;;;6098717;23;20807;-81
2022/04/30 08:08:43;;;;;;;29.83;26.80;;;13.30;99.90;;;;;;6103887;23;20442;-80
2022/04/30 08:11:09;;;;;;;27.00;23.30;;;13.50;99.90;;;;;;6103483;23;20406;-81
2022/04/30 08:13:36;;;;;;;24.83;22.37;;;13.60;99.90;;;;;;6103082;23;20473;-82
2022/04/30 08:16:03;;;;;;;26.20;23.33;;;13.70;99.90;;;;;;6100964;23;20417;-83
2022/04/30 08:18:30;;;;;;;25.53;22.87;;;13.70;99.90;;;;;;6100403;23;20416;-82
2022/04/30 08:20:58;;;;;;;25.90;23.00;;;13.70;99.90;;;;;;6100203;23;20725;-83
2022/04/30 08:23:24;;;;;;;24.73;22.23;;;13.80;99.90;;;;;;6101111;23;20426;-81
2022/04/30 08:25:51;;;;;;;24.80;22.13;;;13.90;99.90;;;;;;6100014;23;20414;-82
2022/04/30 08:28:18;;;;;;;24.30;21.83;;;14.00;99.90;;;;;;6099213;23;20409;-81
2022/04/30 08:30:44;;;;;;;25.60;23.13;;;14.00;99.90;;;;;;6107702;23;20394;-81
2022/04/30 08:33:11;;;;;;;24.93;22.50;;;14.00;99.90;;;;;;6118259;23;20659;-82
2022/04/30 08:35:38;;;;;;;27.00;23.10;;;14.10;99.90;;;;;;6116234;23;20404;-82
2022/04/30 08:38:06;;;;;;;24.60;21.87;;;14.10;99.90;;;;;;6114367;23;20414;-83
2022/04/30 08:40:34;;;;;;;25.53;23.00;;;14.10;99.90;;;;;;6102958;23;20413;-80
2022/04/30 08:43:08;;;;;;;24.60;22.30;;;14.10;99.90;;;;;;6102346;23;20428;-82
2022/04/30 08:45:37;;;;;;;25.13;22.00;;;14.10;99.90;;;;;;6100887;23;20390;-80
2022/04/30 08:48:07;;;;;;;25.70;23.00;;;14.20;99.90;;;;;;6102870;23;20408;-80
2022/04/30 08:50:35;;;;;;;24.13;21.53;;;14.30;99.90;;;;;;6104600;23;20472;-82
2022/04/30 08:53:02;;;;;;;23.33;19.43;;;14.40;99.90;;;;;;6103476;23;20462;-82
2022/04/30 08:55:30;;;;;;;24.17;21.77;;;14.50;99.90;;;;;;6102148;23;20442;-81
2022/04/30 08:57:57;;;;;;;23.50;21.13;;;14.60;99.90;;;;;;6104645;23;20407;-83
2022/04/30 09:00:23;;;;;;;23.70;21.40;;;14.70;99.90;;;;;;6105492;23;20415;-82
2022/04/30 09:02:50;;;;;;;21.13;19.10;;;14.70;99.90;;;;;;6109775;23;20432;-81
2022/04/30 09:05:17;;;;;;;22.17;19.47;;;14.70;99.90;;;;;;6110179;23;20445;-81
2022/04/30 09:07:53;;;;;;;23.63;21.33;;;14.70;99.90;;;;;;6109994;23;20401;-81
2022/04/30 09:10:22;;;;;;;21.67;19.60;;;14.60;99.90;;;;;;6117119;23;20386;-85
2022/04/30 09:12:51;;;;;;;22.23;20.03;;;14.50;99.90;;;;;;6123975;23;20438;-81
2022/04/30 09:15:18;;;;;;;21.77;19.67;;;14.30;99.90;;;;;;6114055;23;20415;-81
2022/04/30 09:17:55;;;;;;;20.97;19.07;;;14.20;99.90;;;;;;6101884;23;20416;-80
2022/04/30 09:20:22;;;;;;;21.73;19.47;;;14.10;99.90;;;;;;6101112;23;20873;-80
2022/04/30 09:22:49;;;;;;;22.23;20.23;;;14.00;99.90;;;;;;6099105;23;20432;-80
2022/04/30 09:25:16;;;;;;;23.37;20.00;;;13.90;99.90;;;;;;6098189;23;20741;-78
2022/04/30 09:27:44;;;;;;;19.93;17.90;;;13.80;99.90;;;;;;6097970;23;20406;-79
2022/04/30 09:30:20;;;;;;;20.30;18.17;;;13.80;99.90;;;;;;6099882;23;20737;-79
2022/04/30 09:32:57;;;;;;;18.57;16.77;;;13.70;99.90;;;;;;6104641;23;20516;-78
2022/04/30 09:38:08;;;;;;;16.70;15.00;;;13.60;99.90;;;;;;6117985;23;20378;-78
2022/04/30 09:40:35;;;;;;;19.10;17.30;;;13.60;99.90;;;;;;6106021;23;20404;-78
2022/04/30 09:43:02;;;;;;;18.43;16.57;;;13.50;99.90;;;;;;6101172;23;20417;-80
2022/04/30 09:45:32;;;;;;;18.03;14.80;;;13.50;99.90;;;;;;6104223;23;20732;-77
2022/04/30 09:48:00;;;;;;;19.93;18.13;;;13.50;99.90;;;;;;6102904;23;20934;-79
2022/04/30 09:56:05;;;;;;;17.67;16.00;;;13.50;99.90;;;;;;6104795;23;20379;-79
2022/04/30 09:58:36;;;;;;;16.13;14.63;;;13.60;99.90;;;;;;6100793;23;20381;-80
2022/04/30 10:01:06;;;;;;;16.63;15.13;;;13.60;99.90;;;;;;6101875;23;20390;-79
2022/04/30 10:03:34;;;;;;;19.53;16.07;;;13.70;99.90;;;;;;6098914;23;20421;-79
2022/04/30 10:06:03;;;;;;;15.97;14.57;;;13.70;99.90;;;;;;6098029;23;20405;-80
2022/04/30 10:08:33;;;;;;;14.50;13.27;;;13.70;99.90;;;;;;6099969;23;20800;-78
2022/04/30 10:11:12;;;;;;;14.50;13.20;;;13.60;99.90;;;;;;6098600;23;20397;-78
2022/04/30 10:13:49;;;;;;;15.87;14.43;;;13.60;99.90;;;;;;6104112;23;20450;-80
2022/04/30 10:16:24;;;;;;;15.63;14.20;;;13.50;99.90;;;;;;6100021;23;20898;-79
2022/04/30 10:19:08;;;;;;;13.50;12.40;;;13.40;99.90;;;;;;6101342;23;20396;-80
2022/04/30 10:21:35;;;;;;;15.20;13.80;;;13.50;99.90;;;;;;6104833;23;20453;-78
2022/04/30 10:24:04;;;;;;;13.67;12.47;;;13.60;99.90;;;;;;6100942;23;20424;-79
2022/04/30 10:26:31;;;;;;;13.70;12.40;;;13.60;99.90;;;;;;6101678;23;20729;-79
2022/04/30 10:28:59;;;;;;;14.37;13.00;;;13.70;99.90;;;;;;6102040;23;20409;-81
2022/04/30 10:31:27;;;;;;;13.10;11.97;;;13.70;99.90;;;;;;6099080;23;20427;-79
2022/04/30 10:33:54;;;;;;;12.73;11.63;;;13.80;99.90;;;;;;6098390;23;20444;-81
2022/04/30 10:36:22;;;;;;;12.30;11.20;;;13.90;99.90;;;;;;6098609;23;20419;-78
2022/04/30 10:38:55;;;;;;;13.83;12.43;;;13.90;99.90;;;;;;6097580;23;20409;-78
2022/04/30 10:41:22;;;;;;;14.33;12.83;;;14.00;99.90;;;;;;6098405;23;20459;-79
2022/04/30 10:44:00;;;;;;;13.37;12.00;;;14.10;99.90;;;;;;6103358;23;20414;-81
2022/04/30 10:46:36;;;;;;;11.60;10.50;;;14.10;99.90;;;;;;6096237;23;20817;-79
2022/04/30 10:49:05;;;;;;;12.07;10.60;;;13.90;99.90;;;;;;6097942;23;20891;-79
2022/04/30 10:51:37;;;;;;;10.83;9.83;;;13.90;99.90;;;;;;6097147;23;20411;-78
2022/04/30 10:54:09;;;;;;;10.17;9.33;;;14.00;99.90;;;;;;6104229;23;20448;-79
2022/04/30 10:56:36;;;;;;;10.77;9.77;;;14.30;99.90;;;;;;6105445;23;20404;-79
2022/04/30 10:59:02;;;;;;;9.80;9.00;;;14.50;99.90;;;;;;6098923;23;20419;-80
2022/04/30 11:01:30;;;;;;;9.00;8.20;;;14.80;99.90;;;;;;6097185;23;20416;-79
2022/04/30 11:03:57;;;;;;;8.07;7.27;;;15.10;99.90;;;;;;6096320;23;20433;-80
2022/04/30 11:06:25;;;;;;;7.30;6.70;;;15.30;99.90;;;;;;6103307;23;20411;-78
2022/04/30 11:09:00;;;;;;;5.77;5.23;;;15.20;99.90;;;;;;6122531;23;20424;-79
2022/04/30 11:11:27;;;;;;;4.60;4.20;;;15.10;99.90;;;;;;6113769;23;20418;-78
2022/04/30 11:14:02;;;;;;;6.70;3.80;;;15.00;99.90;;;;;;6104401;23;20448;-79
2022/04/30 11:16:35;;;;;;;5.33;4.93;;;14.90;99.90;;;;;;6105239;23;20428;-78
2022/04/30 11:19:06;;;;;;;4.27;3.90;;;14.60;99.90;;;;;;6104230;23;20421;-78
2022/04/30 11:21:34;;;;;;;5.10;4.60;;;14.50;99.90;;;;;;6100837;23;20396;-78
2022/04/30 11:24:01;;;;;;;4.30;4.00;;;14.30;99.90;;;;;;6097449;23;20416;-78
2022/04/30 11:26:29;;;;;;;4.83;4.50;;;14.20;99.90;;;;;;6096798;23;20403;-79
2022/04/30 11:28:56;;;;;;;5.40;4.90;;;14.30;99.90;;;;;;6097209;23;20768;-81
2022/04/30 11:31:23;;;;;;;6.20;5.60;;;14.40;99.90;;;;;;6097094;23;20422;-78
2022/04/30 11:33:51;;;;;;;5.67;5.27;;;14.50;99.90;;;;;;6096558;23;20452;-79
2022/04/30 11:36:19;;;;;;;5.57;5.13;;;14.80;99.90;;;;;;6096256;23;20724;-79
2022/04/30 11:38:53;;;;;;;6.83;6.33;;;15.10;99.90;;;;;;6096344;23;20415;-79
2022/04/30 11:41:20;;;;;;;6.20;5.00;;;15.60;99.90;;;;;;6097109;23;20879;-80
2022/04/30 11:43:58;;;;;;;7.00;6.47;;;16.00;99.90;;;;;;6097806;23;20937;-81
2022/04/30 11:46:25;;;;;;;6.63;6.13;;;16.30;99.90;;;;;;6097587;23;20413;-80
2022/04/30 11:48:53;;;;;;;6.77;6.27;;;16.40;99.90;;;;;;6104147;23;20425;-80
2022/04/30 11:51:21;;;;;;;7.37;6.77;;;16.80;99.90;;;;;;6115002;23;20389;-81
2022/04/30 11:53:47;;;;;;;5.80;5.30;;;17.20;99.90;;;;;;6106881;23;20465;-83
2022/04/30 11:56:14;;;;;;;5.70;5.20;;;17.40;98.50;;;;;;6100678;23;20412;-83
2022/04/30 11:58:43;;;;;;;5.00;4.67;;;17.40;97.10;;;;;;6099596;23;20420;-79
2022/04/30 12:01:24;;;;;;;4.90;4.60;;;17.70;96.80;;;;;;6098796;23;20436;-81
2022/04/30 12:03:56;;;;;;;6.37;5.87;;;17.90;96.40;;;;;;6098632;23;20425;-81
2022/04/30 12:06:25;;;;;;;6.17;5.67;;;17.70;95.70;;;;;;6100079;23;20472;-80
2022/04/30 12:08:52;;;;;;;5.50;5.03;;;17.40;95.80;;;;;;6103374;23;20394;-81
2022/04/30 12:11:19;;;;;;;5.53;5.07;;;17.50;96.40;;;;;;6099800;23;20483;-81
2022/04/30 12:14:00;;;;;;;5.33;4.93;;;17.50;95.90;;;;;;6104335;23;20483;-78
2022/04/30 12:16:34;;;;;;;4.90;4.50;;;17.50;95.60;;;;;;6112101;23;20469;-80
2022/04/30 12:24:44;;;;;;;6.20;5.70;;;16.70;95.50;;;;;;6057301;23;20420;-79
2022/04/30 12:27:19;;;;;;;6.13;5.63;;;16.60;96.00;;;;;;6120712;23;20384;-79
2022/04/30 12:29:47;;;;;;;5.87;5.37;;;16.70;95.80;;;;;;6115215;23;20444;-79
2022/04/30 12:32:17;;;;;;;6.10;5.60;;;17.20;95.80;;;;;;6100646;23;20418;-79
2022/04/30 12:34:45;;;;;;;6.10;5.50;;;17.60;95.00;;;;;;6099178;23;20436;-80
2022/04/30 12:37:12;;;;;;;5.67;5.17;;;17.80;93.80;;;;;;6103244;23;20793;-79
2022/04/30 12:39:40;;;;;;;5.90;5.50;;;17.70;93.80;;;;;;6101428;23;20419;-79
2022/04/30 12:42:09;;;;;;;4.97;4.57;;;17.60;93.80;;;;;;6101297;23;20409;-80
2022/04/30 12:44:36;;;;;;;4.47;4.17;;;17.30;93.80;;;;;;6100037;23;20444;-80
2022/04/30 12:47:03;;;;;;;5.30;4.90;;;17.10;94.10;;;;;;6097845;23;20428;-79
2022/04/30 12:49:29;;;;;;;6.17;5.33;;;16.80;94.50;;;;;;6102848;23;20716;-78
2022/04/30 12:51:57;;;;;;;6.60;6.10;;;16.30;95.00;;;;;;6099681;23;20522;-78
2022/04/30 12:54:24;;;;;;;7.47;6.70;;;15.90;95.90;;;;;;6097680;23;20444;-78
2022/04/30 12:56:51;;;;;;;8.03;7.33;;;15.60;96.90;;;;;;6097734;23;20432;-80
2022/04/30 12:59:17;;;;;;;7.70;7.00;;;15.40;97.50;;;;;;6103057;23;20423;-78
2022/04/30 13:01:44;;;;;;;7.03;6.53;;;15.20;97.90;;;;;;6101702;23;20416;-80
2022/04/30 13:04:12;;;;;;;8.60;7.90;;;15.10;98.50;;;;;;6118729;23;20425;-77
2022/04/30 13:06:39;;;;;;;9.37;8.67;;;15.00;98.20;;;;;;6115707;23;20411;-77
2022/04/30 13:14:36;;;;;;;9.50;8.70;;;14.60;98.90;;;;;;6096143;23;21015;-81
2022/04/30 13:17:03;;;;;;;10.60;9.50;;;14.50;98.60;;;;;;6098084;23;20423;-80
2022/04/30 13:19:31;;;;;;;9.33;8.53;;;14.50;98.70;;;;;;6099126;23;20416;-80
2022/04/30 13:21:57;;;;;;;9.80;9.10;;;14.30;98.10;;;;;;6099674;23;20959;-81